Charleston Heights, South Carolina
Current Conditions -  °F | °C
As of 2:56 AM on Monday 26 Jan 2015 (Local Time) from KCHS Reporting Station
Broken Clouds Broken Clouds  
Wind Chill: 11°   Ceiling: 5500
Heat Index: 11°   Visibility: 10mi
Dew Point:   Wind: 8mph
Humidity: 80%   Direction: 220°SW
Pressure: 29.77"   Gusts: NA
Location:  32.8713°N, 80.0388°W
Report Text: KCHS 260756Z 22007KT 10SM FEW034 BKN055 11/07 A2977 RMK AO2 SLP080 T01060072 $
Loading
Personal Weather Stations






























Interactive Weather Map New forecast layout! Learn more

10-Day Weather Forecast

Advertisements
Track Severe Weather on mobile